createdAt,value
2019-03-06T06:35:28.989Z,8.40
2019-03-06T06:37:58.487Z,6.10
2019-03-06T06:40:27.946Z,6.10
2019-03-06T06:42:57.424Z,6.20
2019-03-06T06:45:26.835Z,6.30
2019-03-06T06:48:09.313Z,6.30
2019-03-06T06:50:40.692Z,6.40
2019-03-06T06:53:48.687Z,6.40
2019-03-06T06:56:57.907Z,6.50
2019-03-06T06:59:35.591Z,6.60
2019-03-06T07:03:13.226Z,6.60
2019-03-06T07:05:57.202Z,6.70
2019-03-06T07:08:49.325Z,6.80
2019-03-06T07:11:29.456Z,6.80
2019-03-06T07:14:10.919Z,7.00
2019-03-06T07:16:52.667Z,7.10
2019-03-06T07:19:35.061Z,7.10
2019-03-06T07:22:26.416Z,7.20
2019-03-06T07:25:05.697Z,7.30
2019-03-06T07:27:53.398Z,7.40
2019-03-06T07:36:19.875Z,7.50
2019-03-06T07:47:15.127Z,7.80
2019-03-06T07:49:54.031Z,8.20
2019-03-06T07:52:37.879Z,8.30
2019-03-06T07:55:33.141Z,8.50
2019-03-06T07:58:54.879Z,8.50
2019-03-06T08:01:26.534Z,8.60
2019-03-06T08:04:02.367Z,8.70
2019-03-06T08:06:31.810Z,8.80
2019-03-06T08:09:01.264Z,8.90
2019-03-06T08:11:58.638Z,8.90
2019-03-06T08:15:03.246Z,9.00
2019-03-06T08:18:10.076Z,9.10
2019-03-06T08:20:56.853Z,9.20
2019-03-06T08:23:52.381Z,9.30
2019-03-06T08:26:21.739Z,9.40
2019-03-06T08:28:51.095Z,9.50
2019-03-06T08:31:39.514Z,9.50
2019-03-06T08:34:09.020Z,9.50
2019-03-06T08:36:38.485Z,9.60
2019-03-06T08:39:18.546Z,9.60
2019-03-06T08:41:47.898Z,9.60
2019-03-06T08:44:17.368Z,9.70
2019-03-06T08:47:05.819Z,9.60
2019-03-06T08:50:09.103Z,9.60
2019-03-06T08:52:48.440Z,9.60
2019-03-06T08:55:42.532Z,9.50
2019-03-06T08:58:17.830Z,9.50
2019-03-06T09:01:10.546Z,9.60
2019-03-06T09:04:09.625Z,9.60
2019-03-06T09:06:53.719Z,9.60
2019-03-06T09:09:35.586Z,9.60
2019-03-06T09:12:26.835Z,9.60
2019-03-06T09:15:21.577Z,9.60
2019-03-06T09:18:15.779Z,9.60
2019-03-06T09:21:08.293Z,9.70
2019-03-06T09:23:55.651Z,9.70
2019-03-06T09:26:39.333Z,9.70
2019-03-06T09:29:18.770Z,9.70
2019-03-06T09:31:54.972Z,9.80
2019-03-06T09:34:47.906Z,9.80
2019-03-06T09:37:39.051Z,9.80
2019-03-06T09:40:33.783Z,9.90
2019-03-06T09:43:33.811Z,9.90
2019-03-06T09:46:27.417Z,9.90
2019-03-06T09:49:11.740Z,9.90
2019-03-06T09:52:07.439Z,9.90
2019-03-06T09:54:55.777Z,9.90
2019-03-06T09:57:43.000Z,10.00
2019-03-06T10:00:34.887Z,10.00
2019-03-06T10:03:21.754Z,10.10
2019-03-06T10:06:06.711Z,10.10
2019-03-06T10:09:08.198Z,10.10
2019-03-06T10:11:58.250Z,10.10
2019-03-06T13:22:25.217Z,10.10
2019-03-06T13:24:54.741Z,10.60
2019-03-06T13:27:24.414Z,10.50
2019-03-06T13:29:53.842Z,10.50
2019-03-06T13:32:25.349Z,10.50
2019-03-06T13:34:59.560Z,10.60
2019-03-06T13:37:29.009Z,10.70
2019-03-06T13:39:58.511Z,10.70
2019-03-06T13:42:28.027Z,10.80
2019-03-06T13:44:57.511Z,10.70
2019-03-06T13:47:27.158Z,10.60
2019-03-06T13:49:56.858Z,10.60
2019-03-06T13:52:27.563Z,10.70
2019-03-06T13:54:58.252Z,10.70
2019-03-06T13:57:27.837Z,10.60
2019-03-06T13:59:58.938Z,10.70
2019-03-06T14:02:28.450Z,10.60
2019-03-06T14:04:58.719Z,10.70
2019-03-06T14:07:28.231Z,10.60
2019-03-06T14:09:58.872Z,10.60
2019-03-06T14:12:28.489Z,10.60
2019-03-06T14:14:59.262Z,10.50
2019-03-06T14:17:28.987Z,10.50
2019-03-06T14:19:58.478Z,10.50
2019-03-06T14:22:27.990Z,10.50
2019-03-06T14:24:57.504Z,10.50
2019-03-06T14:27:27.027Z,10.50
2019-03-06T14:29:56.442Z,10.50
2019-03-06T14:32:26.066Z,10.50
2019-03-06T14:34:55.934Z,10.50
2019-03-06T14:37:27.100Z,10.40
2019-03-06T14:39:59.433Z,10.40
2019-03-06T14:42:29.630Z,10.40
2019-03-06T14:44:59.392Z,10.40
2019-03-06T14:47:30.337Z,10.30
2019-03-06T14:49:59.959Z,10.40
2019-03-06T14:52:29.425Z,10.40
2019-03-06T14:54:58.874Z,10.40
2019-03-06T14:57:28.569Z,10.40
2019-03-06T14:59:58.009Z,10.30
2019-03-06T15:02:27.648Z,10.40
2019-03-06T15:04:57.292Z,10.40
2019-03-06T15:07:26.916Z,10.40
2019-03-06T15:09:56.551Z,10.30
2019-03-06T15:12:26.121Z,10.40
2019-03-06T15:14:55.569Z,10.30
2019-03-06T15:17:25.029Z,10.30
2019-03-06T15:19:55.126Z,10.40
2019-03-06T15:22:24.624Z,10.40
2019-03-06T15:24:55.883Z,10.30
2019-03-06T15:27:25.410Z,10.40
2019-03-06T15:29:54.988Z,10.30
2019-03-06T15:32:24.857Z,10.30
2019-03-06T15:34:54.463Z,10.30
2019-03-06T15:37:24.490Z,10.20
2019-03-06T15:39:54.081Z,10.20
2019-03-06T15:42:23.552Z,10.20
2019-03-06T15:44:53.214Z,10.20
2019-03-06T15:47:22.975Z,10.10
2019-03-06T15:49:52.607Z,10.10
2019-03-06T15:52:22.052Z,10.10
2019-03-06T15:54:52.738Z,10.10
2019-03-06T15:57:24.057Z,10.00
2019-03-06T15:59:53.469Z,10.00
2019-03-06T16:02:24.723Z,10.00
2019-03-06T16:04:54.169Z,9.90
2019-03-06T16:07:23.963Z,9.90
2019-03-06T16:09:55.250Z,9.80
2019-03-06T16:12:24.671Z,9.90
2019-03-06T16:14:54.180Z,9.80
2019-03-06T16:17:24.969Z,9.80
2019-03-06T16:19:55.228Z,9.80
2019-03-06T16:22:26.126Z,9.80
2019-03-06T16:24:55.581Z,9.80
2019-03-06T16:27:25.311Z,9.70
2019-03-06T16:29:55.915Z,9.70
2019-03-06T16:32:27.977Z,9.60
2019-03-06T16:34:57.430Z,9.70
2019-03-06T16:37:28.214Z,9.60
2019-03-06T16:39:58.880Z,9.60
2019-03-06T16:42:28.885Z,9.60
2019-03-06T16:44:58.973Z,9.60
2019-03-06T16:47:29.195Z,9.60
2019-03-06T16:49:59.524Z,9.60
2019-03-06T16:52:29.778Z,9.60
2019-03-06T16:54:59.695Z,9.60
2019-03-06T16:57:29.887Z,9.50
2019-03-06T17:00:00.336Z,9.50
2019-03-06T17:02:30.581Z,9.50
2019-03-06T17:05:00.986Z,9.50
2019-03-06T17:07:31.319Z,9.50
2019-03-06T17:10:01.745Z,9.50
2019-03-06T17:12:32.514Z,9.50
2019-03-06T17:15:02.958Z,9.50
2019-03-06T17:17:33.532Z,9.50
2019-03-06T17:20:04.312Z,9.50
2019-03-06T17:22:34.705Z,9.50
2019-03-06T17:25:05.812Z,9.50
2019-03-06T17:27:36.141Z,9.50
2019-03-06T17:30:09.621Z,9.50
2019-03-06T17:33:00.091Z,9.50
2019-03-06T17:35:31.323Z,9.50
2019-03-06T17:38:02.204Z,9.50
2019-03-06T17:40:53.065Z,9.50
2019-03-06T17:43:24.914Z,9.50
2019-03-06T17:45:55.327Z,9.40
2019-03-06T17:48:25.997Z,9.40
2019-03-06T17:50:56.338Z,9.50
2019-03-06T17:53:27.380Z,9.50
2019-03-06T17:55:58.140Z,9.50
2019-03-06T17:58:28.545Z,9.50
2019-03-06T18:01:05.528Z,9.60
2019-03-06T18:03:44.148Z,9.60
2019-03-06T18:06:14.439Z,9.60
2019-03-06T18:08:44.758Z,9.70
2019-03-06T18:11:15.099Z,9.70
2019-03-06T18:13:45.842Z,9.70
2019-03-06T18:16:16.317Z,9.70
2019-03-06T18:18:46.765Z,9.70
2019-03-06T18:21:17.346Z,9.70
2019-03-06T18:23:47.883Z,9.70
2019-03-06T18:26:18.610Z,9.80
2019-03-06T18:28:49.102Z,9.70
2019-03-06T18:31:20.781Z,9.80
2019-03-06T18:33:52.412Z,9.80
2019-03-06T18:36:23.081Z,9.80
2019-03-06T18:38:56.647Z,9.80
2019-03-06T18:41:27.909Z,9.90
2019-03-06T18:43:58.546Z,9.90
2019-03-06T18:46:29.397Z,9.90
2019-03-06T18:48:59.939Z,9.90
2019-03-06T18:51:31.478Z,9.80
2019-03-06T18:54:01.956Z,9.80
2019-03-06T18:56:32.591Z,9.80
2019-03-06T18:59:03.121Z,9.80
2019-03-06T19:01:33.435Z,9.80
2019-03-06T19:04:04.184Z,9.80
2019-03-06T19:06:55.975Z,9.80
2019-03-06T19:09:26.690Z,9.80
2019-03-06T19:11:59.644Z,9.90
2019-03-06T19:14:30.308Z,9.90
2019-03-06T19:17:01.017Z,9.90
2019-03-06T19:19:31.600Z,9.90
2019-03-06T19:22:20.862Z,10.00
2019-03-06T19:24:53.043Z,10.00
2019-03-06T19:27:23.650Z,10.00
2019-03-06T19:30:00.384Z,10.00
2019-03-06T19:32:33.662Z,10.00
2019-03-06T19:35:06.366Z,10.00
2019-03-06T19:37:54.951Z,10.00
2019-03-06T19:40:31.087Z,10.00
2019-03-06T19:43:23.462Z,10.00
2019-03-06T19:46:09.242Z,10.00
2019-03-06T19:48:44.273Z,10.00
2019-03-06T19:51:21.953Z,9.90
2019-03-06T19:54:11.263Z,9.90
2019-03-06T19:56:50.007Z,9.90
2019-03-06T19:59:20.688Z,9.80
2019-03-06T20:01:52.517Z,9.70
2019-03-06T20:04:22.935Z,9.60
2019-03-06T20:06:53.575Z,9.50
2019-03-06T20:09:26.441Z,9.40
2019-03-06T20:11:57.217Z,9.40
2019-03-06T20:14:27.825Z,9.30
2019-03-06T20:16:58.318Z,9.20
2019-03-06T20:19:28.998Z,9.20
2019-03-06T20:21:59.539Z,9.20
2019-03-06T20:24:32.043Z,9.20
2019-03-06T20:27:02.569Z,9.20
2019-03-06T20:29:33.113Z,9.20
2019-03-06T20:32:03.687Z,9.10
2019-03-06T20:34:34.246Z,9.20
2019-03-06T20:37:04.742Z,9.20
2019-03-06T20:39:35.689Z,9.20
2019-03-06T20:42:06.093Z,9.20
2019-03-06T20:44:37.045Z,9.20
2019-03-06T20:47:07.378Z,9.20
2019-03-06T20:49:37.920Z,9.20
2019-03-06T20:52:08.580Z,9.20
2019-03-06T20:54:40.756Z,9.20
2019-03-06T20:57:12.309Z,9.20
2019-03-06T20:59:42.989Z,9.20
2019-03-06T21:02:13.500Z,9.20
2019-03-06T21:04:43.934Z,9.20
2019-03-06T21:07:14.373Z,9.20
2019-03-06T21:09:44.677Z,9.30
2019-03-06T21:12:15.081Z,9.30
2019-03-06T21:14:48.587Z,9.20
2019-03-06T21:17:19.010Z,9.30
2019-03-06T21:19:49.492Z,9.30
2019-03-06T21:22:20.031Z,9.30
2019-03-06T21:24:50.517Z,9.30
2019-03-06T21:27:20.927Z,9.40
2019-03-06T21:29:51.457Z,9.40
2019-03-06T21:32:21.763Z,9.40
2019-03-06T21:34:52.122Z,9.40
2019-03-06T21:37:22.463Z,9.40
2019-03-06T21:39:52.884Z,9.40
2019-03-06T21:42:23.270Z,9.40
2019-03-06T21:44:53.765Z,9.40
2019-03-06T21:47:24.954Z,9.50
2019-03-06T21:50:13.960Z,9.50
2019-03-06T21:52:43.708Z,9.50
2019-03-06T21:55:14.003Z,9.50
2019-03-06T21:57:43.860Z,9.50
2019-03-06T22:00:17.317Z,9.50
2019-03-06T22:02:48.821Z,9.50
2019-03-06T22:05:18.649Z,9.50
2019-03-06T22:07:50.276Z,9.50
2019-03-06T22:10:21.102Z,9.50
2019-03-06T22:12:50.571Z,9.50
2019-03-06T22:15:20.017Z,9.50
2019-03-06T22:17:49.550Z,9.50
2019-03-06T22:20:20.179Z,9.50
2019-03-06T22:22:51.811Z,9.50
2019-03-06T22:25:22.532Z,9.50
2019-03-06T22:27:52.015Z,9.50
2019-03-06T22:30:22.695Z,9.50
2019-03-06T22:32:53.845Z,9.40
2019-03-06T22:35:23.309Z,9.50
2019-03-06T22:37:53.882Z,9.50
2019-03-06T22:40:23.649Z,9.50
2019-03-06T22:42:53.079Z,9.50
2019-03-06T22:45:22.846Z,9.50
2019-03-06T22:47:53.438Z,9.50
2019-03-06T22:50:23.520Z,9.50
2019-03-06T22:52:54.487Z,9.50
2019-03-06T22:55:25.036Z,9.50
2019-03-06T22:57:54.514Z,9.50
2019-03-06T23:00:57.867Z,9.60
2019-03-06T23:03:29.183Z,9.60
2019-03-06T23:05:58.759Z,9.60
2019-03-06T23:08:28.240Z,9.70
2019-03-06T23:10:58.976Z,9.70
2019-03-06T23:13:29.742Z,9.70
2019-03-06T23:16:00.605Z,9.70
2019-03-06T23:18:30.051Z,9.70
2019-03-06T23:20:59.748Z,9.80
2019-03-06T23:23:29.237Z,9.80
2019-03-06T23:25:58.922Z,9.80
2019-03-06T23:28:28.425Z,9.80
2019-03-06T23:30:58.002Z,9.80
2019-03-06T23:33:29.010Z,9.90
2019-03-06T23:35:58.428Z,9.90
2019-03-06T23:38:28.127Z,9.90
2019-03-06T23:40:57.841Z,9.90
2019-03-06T23:43:27.299Z,9.90
2019-03-06T23:45:58.015Z,10.00
2019-03-06T23:48:27.502Z,10.00
2019-03-06T23:51:19.284Z,10.00
2019-03-06T23:53:54.197Z,10.00
2019-03-06T23:56:23.980Z,10.00
2019-03-06T23:58:53.412Z,10.00
